Time;durP1;ratioP1;P1;durP2;ratioP2;P2;SDS_P1;SDS_P2;PMS_P1;PMS_P2;Temp;Humidity;BMP_temperature;BMP_pressure;BME280_temperature;BME280_humidity;BME280_pressure;Samples;Min_cycle;Max_cycle;Signal;HPM_P1;HPM_P2
2022/07/12 00:01:53;;;;;;;10.48;7.30;;;20.30;96.90;;;;;;6164983;23;20005;-80
2022/07/12 00:04:19;;;;;;;9.45;7.65;;;18.90;96.60;;;;;;6165017;23;20013;-79
2022/07/12 00:06:45;;;;;;;10.98;8.13;;;18.90;96.80;;;;;;6190568;23;20004;-80
2022/07/12 00:09:11;;;;;;;14.15;8.38;;;18.80;96.90;;;;;;6166876;23;20460;-79
2022/07/12 00:11:37;;;;;;;9.38;8.05;;;18.80;97.00;;;;;;6164487;23;20016;-79
2022/07/12 00:14:05;;;;;;;9.85;8.18;;;18.90;97.00;;;;;;6164028;23;20011;-80
2022/07/12 00:16:34;;;;;;;10.68;8.32;;;18.80;97.10;;;;;;6164447;23;20012;-80
2022/07/12 00:19:00;;;;;;;9.90;7.45;;;19.00;97.30;;;;;;6164080;23;20028;-80
2022/07/12 00:21:26;;;;;;;9.32;8.00;;;18.90;97.30;;;;;;6163611;23;20016;-80
2022/07/12 00:23:52;;;;;;;9.73;7.75;;;18.80;97.10;;;;;;6190546;23;20021;-80
2022/07/12 00:26:18;;;;;;;8.95;7.38;;;18.90;97.40;;;;;;6164834;23;20005;-80
2022/07/12 00:28:44;;;;;;;9.60;8.15;;;18.90;97.40;;;;;;6166551;23;20005;-80
2022/07/12 00:31:10;;;;;;;11.65;8.23;;;18.90;97.20;;;;;;6194194;23;20055;-83
2022/07/12 00:33:36;;;;;;;9.45;7.32;;;18.90;97.90;;;;;;6190039;23;20686;-80
2022/07/12 00:36:04;;;;;;;10.95;7.45;;;18.90;97.70;;;;;;6189309;23;20038;-80
2022/07/12 00:38:30;;;;;;;11.15;7.72;;;18.90;97.20;;;;;;6164539;23;20001;-80
2022/07/12 00:40:56;;;;;;;8.23;7.20;;;18.80;97.60;;;;;;6191232;23;20081;-80
2022/07/12 00:43:22;;;;;;;10.38;8.05;;;18.80;97.50;;;;;;6191439;23;20001;-80
2022/07/12 00:45:48;;;;;;;9.27;7.75;;;18.90;98.00;;;;;;6190961;23;19997;-80
2022/07/12 00:48:17;;;;;;;10.68;7.63;;;18.80;97.60;;;;;;6192613;23;20142;-80
2022/07/12 00:50:45;;;;;;;8.80;7.60;;;18.80;97.80;;;;;;6166077;23;20009;-81
2022/07/12 00:53:12;;;;;;;12.40;8.60;;;18.70;97.90;;;;;;6165997;23;20017;-79
2022/07/12 00:55:38;;;;;;;9.40;8.27;;;18.70;98.00;;;;;;6189660;23;20020;-80
2022/07/12 00:58:04;;;;;;;9.95;8.13;;;17.40;98.10;;;;;;6190197;23;20044;-80
2022/07/12 01:00:30;;;;;;;10.38;7.60;;;18.70;98.60;;;;;;6189893;23;20031;-80
2022/07/12 01:02:57;;;;;;;12.68;8.73;;;18.70;98.50;;;;;;6189357;23;20082;-81
2022/07/12 01:05:24;;;;;;;9.65;8.13;;;18.70;98.50;;;;;;6190108;23;20021;-80
2022/07/12 01:07:50;;;;;;;10.40;7.85;;;18.60;98.70;;;;;;6190433;23;20061;-80
2022/07/12 01:10:16;;;;;;;9.23;7.90;;;18.60;98.70;;;;;;6164338;23;20008;-80
2022/07/12 01:12:43;;;;;;;9.82;7.80;;;18.60;98.90;;;;;;6189023;23;20028;-80
2022/07/12 01:15:09;;;;;;;9.75;7.72;;;18.60;99.00;;;;;;6188998;23;20341;-80
2022/07/12 01:17:36;;;;;;;9.73;8.27;;;18.60;98.90;;;;;;6188537;23;20007;-79
2022/07/12 01:20:04;;;;;;;9.35;8.38;;;18.60;98.90;;;;;;6187857;23;20091;-80
2022/07/12 01:22:33;;;;;;;10.45;8.60;;;18.20;99.10;;;;;;6190050;23;20011;-81
2022/07/12 01:25:04;;;;;;;10.13;8.25;;;18.50;99.20;;;;;;6163762;23;20025;-79
2022/07/12 01:27:31;;;;;;;10.32;7.88;;;18.40;99.30;;;;;;6190080;23;20057;-79
2022/07/12 01:29:57;;;;;;;11.18;8.52;;;19.70;99.90;;;;;;6186150;23;20008;-80
2022/07/12 01:32:26;;;;;;;12.75;8.57;;;18.20;99.90;;;;;;6162704;23;20059;-80
2022/07/12 01:34:56;;;;;;;9.50;8.05;;;18.30;99.90;;;;;;6188676;23;20013;-81
2022/07/12 01:37:23;;;;;;;11.52;8.23;;;18.20;99.90;;;;;;6188360;23;20009;-80
2022/07/12 01:39:54;;;;;;;10.30;8.13;;;18.50;99.90;;;;;;6186319;23;20067;-80
2022/07/12 01:42:30;;;;;;;11.13;8.77;;;18.10;99.90;;;;;;6187414;23;20001;-81
2022/07/12 01:44:57;;;;;;;13.25;7.70;;;18.20;99.90;;;;;;6188194;23;20072;-80
2022/07/12 01:47:29;;;;;;;9.63;8.40;;;18.20;99.90;;;;;;6189561;23;20523;-80
2022/07/12 01:49:55;;;;;;;11.20;7.88;;;18.10;99.90;;;;;;6189111;23;20012;-80
2022/07/12 01:52:22;;;;;;;10.68;8.30;;;18.10;99.90;;;;;;6164297;23;20017;-81
2022/07/12 01:54:48;;;;;;;12.43;8.30;;;18.10;99.90;;;;;;6188450;23;20036;-81
2022/07/12 01:57:14;;;;;;;10.88;7.88;;;17.90;99.90;;;;;;6139028;23;20013;-81
2022/07/12 01:59:42;;;;;;;12.30;8.77;;;18.00;99.90;;;;;;6162094;23;20009;-80
2022/07/12 02:02:10;;;;;;;10.38;8.35;;;18.00;99.90;;;;;;6162094;23;20009;-81
2022/07/12 02:04:36;;;;;;;10.85;8.80;;;18.10;99.90;;;;;;6188207;23;20023;-81
2022/07/12 02:07:03;;;;;;;10.73;9.02;;;17.90;99.90;;;;;;6187227;23;20463;-81
2022/07/12 02:09:29;;;;;;;11.02;9.15;;;17.90;99.90;;;;;;6187153;23;20009;-81
2022/07/12 02:11:55;;;;;;;11.25;9.32;;;17.90;99.90;;;;;;6186130;23;20009;-80
2022/07/12 02:14:21;;;;;;;12.50;9.57;;;17.80;99.90;;;;;;6186351;23;20008;-79
2022/07/12 02:16:47;;;;;;;12.50;9.27;;;17.80;99.90;;;;;;6187317;23;20016;-80
2022/07/12 02:19:14;;;;;;;10.88;8.63;;;17.70;99.90;;;;;;6161194;23;20013;-80
2022/07/12 02:21:40;;;;;;;11.55;8.82;;;17.70;99.90;;;;;;6163563;23;20005;-80
2022/07/12 02:24:07;;;;;;;11.35;8.57;;;17.70;99.90;;;;;;6192089;23;20001;-82
2022/07/12 02:26:36;;;;;;;11.20;8.75;;;17.60;99.90;;;;;;6167962;23;20002;-81
2022/07/12 02:29:06;;;;;;;11.65;8.90;;;17.70;99.90;;;;;;6195986;23;20005;-80
2022/07/12 02:31:32;;;;;;;10.63;8.63;;;17.70;99.90;;;;;;6164956;23;20059;-82
2022/07/12 02:34:01;;;;;;;12.13;9.50;;;17.70;99.90;;;;;;6165985;23;20016;-81
2022/07/12 02:36:30;;;;;;;11.15;8.82;;;16.70;99.90;;;;;;6190254;23;20009;-81
2022/07/12 02:38:56;;;;;;;11.15;8.85;;;17.60;99.90;;;;;;6190033;23;20047;-83
2022/07/12 02:41:30;;;;;;;11.27;8.77;;;17.60;99.90;;;;;;6190330;23;20001;-80
2022/07/12 02:43:57;;;;;;;11.38;9.13;;;17.40;99.90;;;;;;6163132;23;20445;-80
2022/07/12 02:46:23;;;;;;;11.85;8.90;;;18.40;99.90;;;;;;6189540;23;20005;-80
2022/07/12 02:48:52;;;;;;;10.82;9.00;;;17.50;99.90;;;;;;6187438;23;20028;-80
2022/07/12 02:51:18;;;;;;;12.05;9.35;;;18.80;99.90;;;;;;6185500;23;20025;-79
2022/07/12 02:53:44;;;;;;;11.45;9.30;;;17.30;99.90;;;;;;6161244;23;20017;-80
2022/07/12 02:56:11;;;;;;;13.50;9.63;;;17.40;99.90;;;;;;6160936;23;20429;-80
2022/07/12 02:58:37;;;;;;;14.57;9.70;;;17.30;99.90;;;;;;6187507;23;20005;-80
2022/07/12 03:01:03;;;;;;;10.15;8.77;;;17.40;99.90;;;;;;6186727;23;20023;-80
2022/07/12 03:03:29;;;;;;;13.55;9.73;;;17.40;99.90;;;;;;6187731;23;20001;-81
2022/07/12 03:05:56;;;;;;;13.35;9.95;;;17.30;99.90;;;;;;6136901;23;20008;-80
2022/07/12 03:08:22;;;;;;;12.02;9.02;;;17.20;99.90;;;;;;6159990;23;20016;-80
2022/07/12 03:10:48;;;;;;;11.70;9.90;;;17.30;99.90;;;;;;6162851;23;20009;-80
2022/07/12 03:13:14;;;;;;;12.23;9.20;;;17.30;99.90;;;;;;6163164;23;20012;-80
2022/07/12 03:15:40;;;;;;;11.75;9.10;;;16.30;99.90;;;;;;6186850;23;20448;-79
2022/07/12 03:18:06;;;;;;;13.18;10.32;;;17.20;99.90;;;;;;6185000;23;20005;-80
2022/07/12 03:20:33;;;;;;;11.52;9.30;;;17.20;99.90;;;;;;6187098;23;20029;-81
2022/07/12 03:22:59;;;;;;;11.80;10.10;;;17.20;99.90;;;;;;6164026;23;20028;-81
2022/07/12 03:25:25;;;;;;;12.98;9.65;;;17.20;99.90;;;;;;6189146;23;19997;-80
2022/07/12 03:27:51;;;;;;;12.30;9.95;;;17.30;99.90;;;;;;6163441;23;20059;-80
2022/07/12 03:30:17;;;;;;;12.35;9.38;;;17.20;99.90;;;;;;6189166;23;19996;-81
2022/07/12 03:32:44;;;;;;;11.38;9.45;;;17.20;99.90;;;;;;6187912;23;20519;-80
2022/07/12 03:35:10;;;;;;;12.10;9.75;;;17.20;99.90;;;;;;6163429;23;20008;-80
2022/07/12 03:37:50;;;;;;;11.73;9.45;;;17.10;99.90;;;;;;6187598;23;20004;-80
2022/07/12 03:40:17;;;;;;;;;;;17.10;99.90;;;;;;6163199;23;20036;-81
2022/07/12 03:42:43;;;;;;;13.98;10.38;;;15.60;99.90;;;;;;6163092;23;19901;-80
2022/07/12 03:45:10;;;;;;;13.93;9.45;;;17.20;99.90;;;;;;6163569;23;20012;-80
2022/07/12 03:47:37;;;;;;;12.60;9.95;;;15.90;99.90;;;;;;6190967;23;20001;-80
2022/07/12 03:50:06;;;;;;;13.02;10.15;;;16.90;99.90;;;;;;6205827;23;19996;-85
2022/07/12 03:52:35;;;;;;;13.15;10.18;;;17.00;99.90;;;;;;6189241;23;20068;-81
2022/07/12 03:55:06;;;;;;;13.70;9.95;;;16.70;99.90;;;;;;6176040;23;20017;-81
2022/07/12 03:57:32;;;;;;;14.35;10.15;;;16.80;99.90;;;;;;6190105;23;20325;-81
2022/07/12 04:00:12;;;;;;;12.50;10.15;;;16.80;99.90;;;;;;6166385;23;20032;-80
2022/07/12 04:02:39;;;;;;;13.50;10.68;;;16.80;99.90;;;;;;6164778;23;20044;-81
2022/07/12 04:05:07;;;;;;;13.50;10.57;;;16.90;99.90;;;;;;6164777;23;20040;-80
2022/07/12 04:07:33;;;;;;;12.65;9.85;;;16.80;99.90;;;;;;6163401;23;20017;-79
2022/07/12 04:09:58;;;;;;;14.32;10.52;;;16.80;99.90;;;;;;6189670;23;20455;-80
2022/07/12 04:12:30;;;;;;;11.27;9.50;;;16.70;99.90;;;;;;6189812;23;20036;-81
2022/07/12 04:14:56;;;;;;;18.63;12.45;;;16.90;99.90;;;;;;6190026;23;20009;-80
2022/07/12 04:17:21;;;;;;;11.45;9.15;;;16.90;99.90;;;;;;6163140;23;20441;-79
2022/07/12 04:19:47;;;;;;;16.45;10.07;;;16.90;99.90;;;;;;6161996;23;20020;-80
2022/07/12 04:22:13;;;;;;;12.10;9.25;;;16.90;99.90;;;;;;6162079;23;20333;-79
2022/07/12 04:24:39;;;;;;;12.27;8.80;;;16.00;99.90;;;;;;6162477;23;20005;-81
2022/07/12 04:27:05;;;;;;;12.73;9.77;;;17.00;99.90;;;;;;6162984;23;20005;-81
2022/07/12 04:29:31;;;;;;;10.60;8.38;;;16.90;99.90;;;;;;6161709;23;20005;-79
2022/07/12 04:31:57;;;;;;;11.13;8.93;;;17.00;99.90;;;;;;6162600;23;20060;-79
2022/07/12 04:34:23;;;;;;;11.82;9.10;;;17.10;99.90;;;;;;6187193;23;20005;-80
2022/07/12 04:36:48;;;;;;;11.55;9.02;;;17.10;99.90;;;;;;6189927;23;20005;-80
2022/07/12 04:39:17;;;;;;;12.38;9.13;;;17.10;99.90;;;;;;6187566;23;20028;-81
2022/07/12 04:41:45;;;;;;;10.95;8.80;;;16.90;99.90;;;;;;6138946;23;20341;-79
2022/07/12 04:44:11;;;;;;;11.25;8.85;;;17.10;99.90;;;;;;6162914;23;20008;-80
2022/07/12 04:46:37;;;;;;;13.10;9.50;;;17.10;99.90;;;;;;6163302;23;20361;-80
2022/07/12 04:49:03;;;;;;;11.63;9.15;;;16.10;99.90;;;;;;6189629;23;20012;-80
2022/07/12 04:51:29;;;;;;;13.10;8.93;;;17.20;99.90;;;;;;6188388;23;20013;-80
2022/07/12 04:53:58;;;;;;;12.13;8.95;;;17.10;99.90;;;;;;6171710;23;20001;-82
2022/07/12 04:56:24;;;;;;;13.52;9.18;;;17.20;99.90;;;;;;6198117;23;20012;-79
2022/07/12 04:58:50;;;;;;;12.18;8.48;;;17.10;99.90;;;;;;6164080;23;20092;-82
2022/07/12 05:01:16;;;;;;;10.38;7.75;;;17.20;99.90;;;;;;6164175;23;20001;-80
2022/07/12 05:03:42;;;;;;;11.13;8.23;;;17.20;99.90;;;;;;6189538;23;20005;-81
2022/07/12 05:06:08;;;;;;;10.10;7.57;;;17.40;99.90;;;;;;6191332;23;20044;-81
2022/07/12 05:08:34;;;;;;;9.98;7.50;;;17.50;99.90;;;;;;6140310;23;20013;-81
2022/07/12 05:11:00;;;;;;;9.68;8.15;;;17.50;99.90;;;;;;6188499;23;20084;-80
2022/07/12 05:13:26;;;;;;;9.85;8.02;;;17.40;99.90;;;;;;6188259;23;20012;-79
2022/07/12 05:15:51;;;;;;;11.75;8.15;;;17.50;99.90;;;;;;6188895;23;20087;-80
2022/07/12 05:18:17;;;;;;;10.90;7.80;;;17.60;99.90;;;;;;6186632;23;20096;-81
2022/07/12 05:20:43;;;;;;;10.05;7.40;;;17.60;99.90;;;;;;6161925;23;20004;-80
2022/07/12 05:23:08;;;;;;;11.25;6.95;;;17.70;99.90;;;;;;6187390;23;20004;-81
2022/07/12 05:25:34;;;;;;;9.90;7.13;;;17.80;99.90;;;;;;6163079;23;20492;-81
2022/07/12 05:28:00;;;;;;;7.78;6.10;;;18.00;99.90;;;;;;6136958;23;20005;-82
2022/07/12 05:30:25;;;;;;;8.63;6.20;;;18.50;99.90;;;;;;6186950;23;20469;-81
2022/07/12 05:32:53;;;;;;;7.45;5.90;;;19.20;99.90;;;;;;6189610;23;20000;-81
2022/07/12 05:35:24;;;;;;;8.10;6.05;;;19.70;99.90;;;;;;6190032;23;20005;-80
2022/07/12 05:37:49;;;;;;;8.02;5.28;;;21.80;97.80;;;;;;6162743;23;20418;-82
2022/07/12 05:40:15;;;;;;;7.10;4.97;;;22.40;96.20;;;;;;6188439;23;20009;-82
2022/07/12 05:42:41;;;;;;;7.80;5.15;;;22.60;95.70;;;;;;6164570;23;20041;-83
2022/07/12 05:45:07;;;;;;;6.80;4.72;;;22.90;94.80;;;;;;6163879;23;20075;-83
2022/07/12 05:47:33;;;;;;;6.30;4.60;;;23.50;94.30;;;;;;6189206;23;20004;-82
2022/07/12 05:49:58;;;;;;;6.82;5.00;;;24.40;92.40;;;;;;6191113;23;20421;-82
2022/07/12 05:55:08;;;;;;;6.30;4.43;;;23.80;92.40;;;;;;6191875;23;20027;-84
2022/07/12 05:57:33;;;;;;;8.63;4.65;;;24.10;91.70;;;;;;6190683;23;20001;-83
2022/07/12 05:59:59;;;;;;;6.22;4.72;;;24.20;91.90;;;;;;6186371;23;20096;-83
2022/07/12 06:02:26;;;;;;;5.28;4.57;;;23.70;91.90;;;;;;6165297;23;20004;-83
2022/07/12 06:04:52;;;;;;;6.47;4.70;;;23.30;92.50;;;;;;6189743;23;20001;-83
2022/07/12 06:07:17;;;;;;;6.72;4.22;;;23.30;92.60;;;;;;6190532;23;20044;-83
2022/07/12 06:09:43;;;;;;;5.50;3.88;;;23.30;92.40;;;;;;6163189;23;20433;-85
2022/07/12 06:12:09;;;;;;;5.90;4.13;;;23.50;92.20;;;;;;6164345;23;20009;-87
2022/07/12 06:14:35;;;;;;;4.97;3.92;;;23.50;92.20;;;;;;6188818;23;20005;-83
2022/07/12 06:17:01;;;;;;;6.18;3.60;;;23.60;92.10;;;;;;6164617;23;20089;-83
2022/07/12 06:19:26;;;;;;;6.50;3.88;;;24.30;91.30;;;;;;6201328;23;20001;-85
2022/07/12 06:21:56;;;;;;;5.88;3.65;;;24.80;90.50;;;;;;6175190;23;20385;-81
2022/07/12 06:24:34;;;;;;;6.85;3.65;;;24.00;89.20;;;;;;6202050;23;20025;-82
2022/07/12 06:27:45;;;;;;;8.13;4.00;;;24.50;90.60;;;;;;6199791;23;20376;-82
2022/07/12 06:30:41;;;;;;;6.38;3.80;;;24.70;90.30;;;;;;6151467;23;19997;-81
2022/07/12 06:33:10;;;;;;;3.83;3.42;;;24.50;90.20;;;;;;6138331;23;20001;-82
2022/07/12 06:36:12;;;;;;;;;;;24.60;90.20;;;;;;6152007;23;20043;-82
2022/07/12 06:39:01;;;;;;;4.68;2.90;;;23.50;91.20;;;;;;6174641;23;19911;-82
2022/07/12 06:41:30;;;;;;;5.18;3.00;;;23.30;92.00;;;;;;6175820;23;20001;-81
2022/07/12 06:44:31;;;;;;;4.78;2.78;;;23.20;92.20;;;;;;6113909;23;20179;-81
2022/07/12 06:47:24;;;;;;;5.55;3.10;;;22.90;92.80;;;;;;6090391;23;20038;-81
2022/07/12 06:49:50;;;;;;;5.68;2.70;;;21.70;93.00;;;;;;6096982;23;20038;-81
2022/07/12 06:52:28;;;;;;;5.22;2.60;;;22.60;93.60;;;;;;6089851;23;20041;-81
2022/07/12 06:55:06;;;;;;;4.90;2.40;;;22.70;93.60;;;;;;6164151;23;20350;-82
2022/07/12 06:57:38;;;;;;;5.80;2.50;;;22.40;93.80;;;;;;6147876;23;20037;-82
2022/07/12 07:00:07;;;;;;;3.90;2.67;;;22.40;94.00;;;;;;6199412;23;20009;-82
2022/07/12 07:02:33;;;;;;;4.80;2.60;;;22.50;93.90;;;;;;6150224;23;20005;-82
2022/07/12 07:04:59;;;;;;;4.93;2.80;;;22.20;94.20;;;;;;6199303;23;20065;-82
2022/07/12 07:07:25;;;;;;;3.97;2.65;;;22.10;94.00;;;;;;6174592;23;19997;-83
2022/07/12 07:09:53;;;;;;;3.70;2.47;;;22.20;94.50;;;;;;6177428;23;20092;-82
2022/07/12 07:12:20;;;;;;;4.20;2.70;;;22.20;94.50;;;;;;6176291;23;20084;-82
2022/07/12 07:14:46;;;;;;;3.47;2.30;;;22.20;94.50;;;;;;6168288;23;20021;-81
2022/07/12 07:17:14;;;;;;;4.05;2.50;;;22.20;94.70;;;;;;6193260;23;20017;-84
2022/07/12 07:19:39;;;;;;;3.58;2.25;;;22.10;94.70;;;;;;6174803;23;20042;-81
2022/07/12 07:22:05;;;;;;;2.90;2.50;;;22.10;95.00;;;;;;6200859;23;20053;-83
2022/07/12 07:24:31;;;;;;;3.10;2.50;;;22.00;95.00;;;;;;6203830;23;20001;-83
2022/07/12 07:26:59;;;;;;;3.70;2.40;;;22.00;95.50;;;;;;6203642;23;20004;-84
2022/07/12 07:32:10;;;;;;;5.40;2.20;;;21.90;95.30;;;;;;6202266;23;20016;-83
2022/07/12 07:34:36;;;;;;;3.42;2.00;;;22.10;95.30;;;;;;6175432;23;20009;-83
2022/07/12 07:37:02;;;;;;;3.55;2.47;;;22.00;94.50;;;;;;6199671;23;20065;-82
2022/07/12 07:39:28;;;;;;;4.10;2.25;;;21.80;94.30;;;;;;6198682;23;20009;-83
2022/07/12 07:41:54;;;;;;;2.10;1.52;;;22.40;94.20;;;;;;6172175;23;20004;-82
2022/07/12 07:44:19;;;;;;;8.10;2.03;;;22.40;93.90;;;;;;6199830;23;20042;-81
2022/07/12 07:46:45;;;;;;;3.75;1.80;;;22.40;93.80;;;;;;6199113;23;20000;-81
2022/07/12 07:49:11;;;;;;;2.97;1.88;;;22.40;93.50;;;;;;6174600;23;20005;-83
2022/07/12 07:51:37;;;;;;;3.08;1.75;;;22.50;93.60;;;;;;6178817;23;20570;-83
2022/07/12 07:54:04;;;;;;;7.55;1.70;;;21.70;93.30;;;;;;6179145;23;20024;-83
2022/07/12 07:56:33;;;;;;;6.13;2.10;;;22.60;92.70;;;;;;6202148;23;20009;-83
2022/07/12 07:58:59;;;;;;;2.57;1.70;;;21.60;92.70;;;;;;6203545;23;20009;-83
2022/07/12 08:01:42;;;;;;;2.47;1.60;;;22.80;93.10;;;;;;6198613;23;20500;-83
2022/07/12 08:04:10;;;;;;;4.43;1.65;;;22.80;93.10;;;;;;6199029;23;20029;-83
2022/07/12 08:06:37;;;;;;;2.25;1.52;;;22.80;93.00;;;;;;6178850;23;20001;-84
2022/07/12 08:09:35;;;;;;;1.85;1.42;;;23.00;92.70;;;;;;6180926;23;20009;-83
2022/07/12 08:12:04;;;;;;;2.72;1.40;;;23.10;92.00;;;;;;6204548;23;20001;-83
2022/07/12 08:14:31;;;;;;;4.90;1.73;;;23.20;92.00;;;;;;6209627;23;20036;-83
2022/07/12 08:16:57;;;;;;;2.13;1.50;;;23.20;91.80;;;;;;6177494;23;20016;-83
2022/07/12 08:19:27;;;;;;;4.75;1.75;;;23.30;91.40;;;;;;6201286;23;20017;-82
2022/07/12 08:21:55;;;;;;;1.80;1.40;;;23.40;91.50;;;;;;6177542;23;20015;-83
2022/07/12 08:24:38;;;;;;;2.10;1.52;;;23.40;91.20;;;;;;6204980;23;20008;-82
2022/07/12 08:27:04;;;;;;;3.63;1.75;;;23.60;90.80;;;;;;6182774;23;20036;-83
2022/07/12 08:29:53;;;;;;;2.30;1.60;;;23.70;90.10;;;;;;6203865;23;20165;-83
2022/07/12 08:32:18;;;;;;;2.50;1.50;;;23.80;89.80;;;;;;6203710;23;20001;-83
2022/07/12 08:34:49;;;;;;;2.30;1.60;;;23.80;90.20;;;;;;6206894;23;20016;-84
2022/07/12 08:37:15;;;;;;;3.28;1.85;;;23.70;90.20;;;;;;6183820;23;20318;-84
2022/07/12 08:39:42;;;;;;;4.28;1.63;;;23.40;90.30;;;;;;6179912;23;20023;-84
2022/07/12 08:42:33;;;;;;;2.55;1.65;;;23.60;90.40;;;;;;6212260;23;20035;-83
2022/07/12 08:44:59;;;;;;;2.03;1.40;;;23.80;90.10;;;;;;6187448;23;20032;-86
2022/07/12 08:47:27;;;;;;;2.78;1.73;;;23.10;90.00;;;;;;6186910;23;20036;-83
2022/07/12 08:50:19;;;;;;;1.58;1.30;;;24.00;89.10;;;;;;6210904;23;20000;-84
2022/07/12 08:52:48;;;;;;;2.42;1.50;;;24.10;88.00;;;;;;6180515;23;20013;-85
2022/07/12 08:55:59;;;;;;;2.60;1.50;;;24.20;87.50;;;;;;6181792;23;20065;-84
2022/07/12 08:58:26;;;;;;;2.97;1.55;;;24.50;86.50;;;;;;6208320;23;20013;-83
2022/07/12 09:00:53;;;;;;;2.63;1.45;;;24.70;85.40;;;;;;6185618;23;20023;-83
2022/07/12 09:03:19;;;;;;;3.50;1.60;;;24.80;85.00;;;;;;6186471;23;20005;-83
2022/07/12 09:06:14;;;;;;;2.50;1.80;;;25.40;85.50;;;;;;6187380;23;20006;-83
2022/07/12 09:08:42;;;;;;;2.45;1.58;;;24.80;84.90;;;;;;6161412;23;20084;-82
2022/07/12 09:11:09;;;;;;;2.72;1.77;;;25.00;85.20;;;;;;6211684;23;20013;-83
2022/07/12 09:14:08;;;;;;;2.17;1.52;;;24.70;83.10;;;;;;6187458;23;20049;-85
2022/07/12 09:16:35;;;;;;;1.63;1.33;;;23.70;83.20;;;;;;6211816;23;19997;-83
2022/07/12 09:19:25;;;;;;;2.40;1.52;;;24.70;84.30;;;;;;6187691;23;20017;-84
2022/07/12 09:21:56;;;;;;;2.63;1.25;;;24.80;84.50;;;;;;6188477;23;20024;-84
2022/07/12 09:24:28;;;;;;;2.95;1.55;;;25.90;84.80;;;;;;6187566;23;19997;-83
2022/07/12 09:27:01;;;;;;;2.10;1.50;;;24.40;82.60;;;;;;6210550;23;20005;-81
2022/07/12 09:29:29;;;;;;;2.20;1.40;;;25.00;81.90;;;;;;6184924;23;19995;-84
2022/07/12 09:43:15;;;;;;;2.40;1.45;;;25.50;82.00;;;;;;6196962;23;20009;-85
2022/07/12 09:45:47;;;;;;;2.40;1.40;;;25.30;82.20;;;;;;6139475;23;20025;-82
2022/07/12 10:53:33;;;;;;;1.52;1.20;;;27.10;74.40;;;;;;6174748;23;20036;-81
2022/07/12 10:57:13;;;;;;;3.33;1.45;;;28.10;75.70;;;;;;6197824;23;20017;-82
2022/07/12 12:27:13;;;;;;;1.02;0.70;;;28.90;63.70;;;;;;6230515;23;20020;-82
2022/07/12 16:47:48;;;;;;;1.88;0.80;;;30.00;57.20;;;;;;6189770;23;20164;-87
2022/07/12 16:50:13;;;;;;;1.38;0.70;;;29.90;57.20;;;;;;6188364;23;20021;-86
2022/07/12 16:52:39;;;;;;;5.47;0.93;;;29.90;57.30;;;;;;6189807;23;20017;-85
2022/07/12 16:55:05;;;;;;;1.20;0.90;;;29.90;57.80;;;;;;6208638;23;20009;-87
2022/07/12 16:57:31;;;;;;;1.73;0.80;;;30.00;57.30;;;;;;6188570;23;20005;-86
2022/07/12 16:59:57;;;;;;;1.17;0.70;;;30.00;57.30;;;;;;6213739;23;20028;-85
2022/07/12 17:02:23;;;;;;;0.82;0.73;;;29.80;57.00;;;;;;6215261;23;20036;-85
2022/07/12 17:04:48;;;;;;;1.55;0.80;;;29.60;56.70;;;;;;6218303;23;20004;-85
2022/07/12 17:07:14;;;;;;;2.25;0.82;;;29.60;57.40;;;;;;6218324;23;20092;-85
2022/07/12 17:09:40;;;;;;;1.38;0.90;;;29.60;57.60;;;;;;6215181;23;20450;-85
2022/07/12 17:12:09;;;;;;;0.88;0.70;;;29.60;57.50;;;;;;6217911;23;20028;-86
2022/07/12 17:14:34;;;;;;;2.67;0.80;;;29.60;57.20;;;;;;6191049;23;20012;-86
2022/07/12 17:17:00;;;;;;;1.35;0.80;;;29.70;57.30;;;;;;6188561;23;20704;-84
2022/07/12 17:19:26;;;;;;;1.58;0.88;;;29.70;57.00;;;;;;6214804;23;20230;-87
2022/07/12 17:21:52;;;;;;;1.00;0.70;;;29.70;56.70;;;;;;6214900;23;20005;-85
2022/07/12 17:24:17;;;;;;;2.97;0.95;;;29.80;56.50;;;;;;6217509;23;20027;-85
2022/07/12 17:26:46;;;;;;;2.97;0.80;;;29.90;56.80;;;;;;6216483;23;20000;-85
2022/07/12 17:29:12;;;;;;;3.38;1.20;;;30.10;56.40;;;;;;6215834;23;20015;-85
2022/07/12 17:31:38;;;;;;;2.80;0.80;;;30.10;56.60;;;;;;6215846;23;20013;-86
2022/07/12 17:34:04;;;;;;;1.63;0.90;;;30.30;56.30;;;;;;6218036;23;20027;-86
2022/07/12 17:36:29;;;;;;;1.05;0.80;;;30.20;56.30;;;;;;6215226;23;20008;-84
2022/07/12 17:38:55;;;;;;;1.55;0.80;;;30.30;56.30;;;;;;6189421;23;20008;-85
2022/07/12 17:41:21;;;;;;;2.47;1.10;;;30.30;55.90;;;;;;6211827;23;20004;-85
2022/07/12 17:43:46;;;;;;;3.67;1.50;;;30.20;55.70;;;;;;6214191;23;20004;-86
2022/07/12 17:46:12;;;;;;;4.57;0.80;;;30.30;56.10;;;;;;6213806;23;20008;-85
2022/07/12 17:48:39;;;;;;;2.53;1.00;;;30.40;55.30;;;;;;6216907;23;20020;-85
2022/07/12 17:51:05;;;;;;;1.38;0.80;;;30.30;55.20;;;;;;6214338;23;20011;-87
2022/07/12 17:53:31;;;;;;;3.58;0.80;;;30.10;55.00;;;;;;6217026;23;20001;-87
2022/07/12 17:55:57;;;;;;;0.77;0.75;;;30.00;55.30;;;;;;6215364;23;20435;-86
2022/07/12 17:58:42;;;;;;;0.70;0.70;;;29.80;55.00;;;;;;6188521;23;20035;-85
2022/07/12 18:01:10;;;;;;;1.58;0.68;;;29.50;55.30;;;;;;6212513;23;20004;-85
2022/07/12 18:03:37;;;;;;;3.35;1.67;;;29.20;54.90;;;;;;6189553;23;20459;-86
2022/07/12 18:06:04;;;;;;;1.77;0.90;;;28.90;55.40;;;;;;6188636;23;20000;-86
2022/07/12 18:08:31;;;;;;;3.00;1.00;;;28.80;55.60;;;;;;6187674;23;20320;-86
2022/07/12 18:10:57;;;;;;;0.80;0.68;;;28.70;55.90;;;;;;6188309;23;20011;-84
2022/07/12 18:16:08;;;;;;;1.80;1.13;;;28.40;56.30;;;;;;6215826;23;20071;-84
2022/07/12 18:18:34;;;;;;;1.05;0.90;;;28.30;57.00;;;;;;6213850;23;20004;-89
2022/07/12 18:20:59;;;;;;;1.55;0.90;;;28.30;56.60;;;;;;6214635;23;20024;-84
2022/07/12 18:23:26;;;;;;;1.70;0.90;;;28.20;56.90;;;;;;6217096;23;20031;-87
2022/07/12 18:25:52;;;;;;;2.63;1.10;;;28.20;57.20;;;;;;6219494;23;20049;-85
2022/07/12 18:28:19;;;;;;;0.80;0.70;;;28.10;57.50;;;;;;6192916;23;20009;-85
2022/07/12 18:30:47;;;;;;;1.58;0.80;;;28.10;57.00;;;;;;6217756;23;20001;-86
2022/07/12 18:33:13;;;;;;;2.53;0.82;;;28.00;57.00;;;;;;6214935;23;20402;-88
2022/07/12 18:35:39;;;;;;;1.73;1.05;;;27.90;57.00;;;;;;6218294;23;20009;-85
2022/07/12 18:38:05;;;;;;;1.48;0.80;;;27.90;57.10;;;;;;6219326;23;20054;-85
2022/07/12 18:40:31;;;;;;;3.30;0.90;;;27.80;57.80;;;;;;6189040;23;20016;-85
2022/07/12 18:43:00;;;;;;;2.70;0.80;;;27.80;57.40;;;;;;6191154;23;20080;-83
2022/07/12 18:45:29;;;;;;;1.80;0.88;;;27.80;57.80;;;;;;6189228;23;19996;-84
2022/07/12 18:47:55;;;;;;;2.63;0.80;;;27.60;58.20;;;;;;6191984;23;20087;-85
2022/07/12 18:50:23;;;;;;;2.13;0.80;;;27.60;58.20;;;;;;6190858;23;20000;-85
2022/07/12 18:52:49;;;;;;;1.10;0.70;;;27.60;58.20;;;;;;6216197;23;20332;-86
2022/07/12 18:55:40;;;;;;;;;;;;;;;;;;;;;
2022/07/12 18:58:09;;;;;;;1.25;0.90;;;27.40;61.20;;;;;;6218867;23;20035;-84
2022/07/12 19:00:45;;;;;;;3.38;0.90;;;27.30;62.10;;;;;;6224157;23;20015;-87
2022/07/12 19:03:11;;;;;;;2.75;1.42;;;25.70;59.60;;;;;;6210493;23;20008;-87
2022/07/12 19:06:07;;;;;;;5.63;1.70;;;27.10;63.30;;;;;;6209433;23;20008;-84
2022/07/12 19:08:47;;;;;;;4.70;1.60;;;27.00;62.40;;;;;;6199390;23;20423;-85
2022/07/12 19:11:13;;;;;;;2.17;1.25;;;26.90;63.70;;;;;;6199392;23;20072;-85
2022/07/12 19:13:42;;;;;;;3.88;1.60;;;26.80;64.20;;;;;;6229455;23;20005;-83
2022/07/12 19:16:17;;;;;;;3.72;1.40;;;26.80;66.30;;;;;;6206038;23;20004;-84
2022/07/12 19:18:54;;;;;;;2.58;1.20;;;26.60;65.30;;;;;;6200393;23;20011;-83
2022/07/12 19:21:20;;;;;;;1.65;1.20;;;26.50;66.10;;;;;;6225369;23;20058;-82
2022/07/12 19:23:46;;;;;;;2.47;1.10;;;26.40;65.50;;;;;;6223606;23;20063;-82
2022/07/12 19:26:12;;;;;;;3.15;1.20;;;26.30;65.40;;;;;;6223267;23;20024;-82
2022/07/12 19:28:38;;;;;;;3.83;1.30;;;26.20;65.70;;;;;;6226045;23;20031;-81
2022/07/12 19:31:04;;;;;;;1.83;1.20;;;24.60;65.20;;;;;;6226202;23;20005;-83
2022/07/12 19:33:31;;;;;;;5.07;2.28;;;26.00;66.30;;;;;;6200041;23;20001;-82
2022/07/12 19:35:57;;;;;;;2.03;1.10;;;25.40;67.00;;;;;;6201600;23;20012;-82
2022/07/12 19:49:15;;;;;;;4.45;1.60;;;25.50;68.10;;;;;;6227661;23;20027;-82
2022/07/12 19:52:45;;;;;;;5.10;1.38;;;25.30;68.10;;;;;;6205097;23;20001;-82
2022/07/12 19:56:21;;;;;;;3.20;1.35;;;24.90;68.20;;;;;;6165528;23;20006;-82
2022/07/12 19:59:28;;;;;;;1.90;1.40;;;25.10;68.80;;;;;;6142702;23;20055;-82
2022/07/12 20:02:37;;;;;;;3.55;1.25;;;25.10;69.10;;;;;;6120830;23;20001;-82
2022/07/12 20:11:15;;;;;;;5.25;1.50;;;24.70;69.90;;;;;;6234299;23;20067;-82
2022/07/12 20:14:17;;;;;;;4.63;1.35;;;24.50;70.10;;;;;;6217755;23;20039;-81
2022/07/12 20:17:39;;;;;;;3.97;1.73;;;24.40;70.30;;;;;;6233667;23;19997;-81
2022/07/12 20:20:36;;;;;;;7.10;3.40;;;24.30;70.50;;;;;;6225324;23;20020;-81
2022/07/12 20:23:44;;;;;;;4.15;1.80;;;24.40;70.70;;;;;;6200936;23;20004;-81
2022/07/12 20:26:20;;;;;;;3.30;1.83;;;24.40;71.00;;;;;;6205831;23;20005;-84
2022/07/12 20:28:46;;;;;;;2.58;1.50;;;24.20;71.10;;;;;;6187050;23;20001;-85